sensor_id;sensor_type;location;lat;lon;timestamp;temperature;humidity
10121;DHT22;5100;45.176;5.714;2023-03-03T00:00:42;10.30;56.70
10121;DHT22;5100;45.176;5.714;2023-03-03T00:03:11;10.20;56.70
10121;DHT22;5100;45.176;5.714;2023-03-03T00:05:38;10.20;56.70
10121;DHT22;5100;45.176;5.714;2023-03-03T00:08:04;10.20;56.70
10121;DHT22;5100;45.176;5.714;2023-03-03T00:10:31;10.20;56.80
10121;DHT22;5100;45.176;5.714;2023-03-03T00:12:57;10.20;56.80
10121;DHT22;5100;45.176;5.714;2023-03-03T00:15:24;10.20;56.90
10121;DHT22;5100;45.176;5.714;2023-03-03T00:17:52;10.20;56.90
10121;DHT22;5100;45.176;5.714;2023-03-03T00:22:47;10.10;57.00
10121;DHT22;5100;45.176;5.714;2023-03-03T00:25:30;10.10;57.00
10121;DHT22;5100;45.176;5.714;2023-03-03T00:30:47;10.10;57.00
10121;DHT22;5100;45.176;5.714;2023-03-03T00:33:32;10.10;57.10
10121;DHT22;5100;45.176;5.714;2023-03-03T00:38:42;10.10;57.10
10121;DHT22;5100;45.176;5.714;2023-03-03T00:41:27;10.10;57.10
10121;DHT22;5100;45.176;5.714;2023-03-03T00:43:53;10.00;57.10
10121;DHT22;5100;45.176;5.714;2023-03-03T00:46:22;10.00;57.10
10121;DHT22;5100;45.176;5.714;2023-03-03T00:48:49;10.00;57.20
10121;DHT22;5100;45.176;5.714;2023-03-03T00:53:49;10.00;57.20
10121;DHT22;5100;45.176;5.714;2023-03-03T00:56:15;10.00;57.20
10121;DHT22;5100;45.176;5.714;2023-03-03T00:58:41;10.00;57.20
10121;DHT22;5100;45.176;5.714;2023-03-03T01:01:09;10.00;57.30
10121;DHT22;5100;45.176;5.714;2023-03-03T01:03:36;10.00;57.40
10121;DHT22;5100;45.176;5.714;2023-03-03T01:06:02;10.00;57.40
10121;DHT22;5100;45.176;5.714;2023-03-03T01:08:28;10.00;57.30
10121;DHT22;5100;45.176;5.714;2023-03-03T01:10:57;10.00;57.30
10121;DHT22;5100;45.176;5.714;2023-03-03T01:13:28;10.00;57.30
10121;DHT22;5100;45.176;5.714;2023-03-03T01:15:56;10.00;57.40
10121;DHT22;5100;45.176;5.714;2023-03-03T01:18:22;10.00;57.40
10121;DHT22;5100;45.176;5.714;2023-03-03T01:20:48;10.00;57.30
10121;DHT22;5100;45.176;5.714;2023-03-03T01:23:14;10.00;57.20
10121;DHT22;5100;45.176;5.714;2023-03-03T01:25:40;10.00;57.20
10121;DHT22;5100;45.176;5.714;2023-03-03T01:28:06;10.00;57.30
10121;DHT22;5100;45.176;5.714;2023-03-03T01:30:32;10.00;57.30
10121;DHT22;5100;45.176;5.714;2023-03-03T01:32:58;10.00;57.20
10121;DHT22;5100;45.176;5.714;2023-03-03T01:35:24;10.00;57.20
10121;DHT22;5100;45.176;5.714;2023-03-03T01:37:50;10.00;57.10
10121;DHT22;5100;45.176;5.714;2023-03-03T01:40:23;10.00;57.10
10121;DHT22;5100;45.176;5.714;2023-03-03T01:42:50;10.00;57.20
10121;DHT22;5100;45.176;5.714;2023-03-03T01:45:18;10.00;57.10
10121;DHT22;5100;45.176;5.714;2023-03-03T01:47:51;10.00;57.20
10121;DHT22;5100;45.176;5.714;2023-03-03T01:50:50;10.00;57.10
10121;DHT22;5100;45.176;5.714;2023-03-03T01:53:23;10.00;57.20
10121;DHT22;5100;45.176;5.714;2023-03-03T01:55:51;10.00;57.10
10121;DHT22;5100;45.176;5.714;2023-03-03T01:58:27;10.00;57.10
10121;DHT22;5100;45.176;5.714;2023-03-03T02:01:08;10.00;57.10
10121;DHT22;5100;45.176;5.714;2023-03-03T02:03:37;10.00;57.20
10121;DHT22;5100;45.176;5.714;2023-03-03T02:06:07;10.00;57.10
10121;DHT22;5100;45.176;5.714;2023-03-03T02:11:21;10.00;57.10
10121;DHT22;5100;45.176;5.714;2023-03-03T02:13:47;10.00;57.10
10121;DHT22;5100;45.176;5.714;2023-03-03T02:16:13;10.00;57.10
10121;DHT22;5100;45.176;5.714;2023-03-03T02:18:40;10.00;57.10
10121;DHT22;5100;45.176;5.714;2023-03-03T02:21:10;10.00;57.10
10121;DHT22;5100;45.176;5.714;2023-03-03T02:26:29;10.00;57.20
10121;DHT22;5100;45.176;5.714;2023-03-03T02:28:56;10.00;57.10
10121;DHT22;5100;45.176;5.714;2023-03-03T02:31:26;10.00;57.10
10121;DHT22;5100;45.176;5.714;2023-03-03T02:33:54;10.00;57.00
10121;DHT22;5100;45.176;5.714;2023-03-03T02:36:23;10.00;57.10
10121;DHT22;5100;45.176;5.714;2023-03-03T02:39:03;10.00;57.10
10121;DHT22;5100;45.176;5.714;2023-03-03T02:41:49;10.00;57.10
10121;DHT22;5100;45.176;5.714;2023-03-03T02:44:22;10.00;57.10
10121;DHT22;5100;45.176;5.714;2023-03-03T02:46:50;10.00;57.10
10121;DHT22;5100;45.176;5.714;2023-03-03T02:49:19;10.00;57.10
10121;DHT22;5100;45.176;5.714;2023-03-03T02:51:46;9.90;57.10
10121;DHT22;5100;45.176;5.714;2023-03-03T02:54:14;9.90;57.10
10121;DHT22;5100;45.176;5.714;2023-03-03T02:56:40;9.90;57.20
10121;DHT22;5100;45.176;5.714;2023-03-03T02:59:06;9.90;57.20
10121;DHT22;5100;45.176;5.714;2023-03-03T03:01:34;9.90;57.20
10121;DHT22;5100;45.176;5.714;2023-03-03T03:04:18;9.90;57.20
10121;DHT22;5100;45.176;5.714;2023-03-03T03:06:45;9.90;57.20
10121;DHT22;5100;45.176;5.714;2023-03-03T03:09:13;9.90;57.20
10121;DHT22;5100;45.176;5.714;2023-03-03T03:11:39;9.90;57.30
10121;DHT22;5100;45.176;5.714;2023-03-03T03:14:08;9.90;57.30
10121;DHT22;5100;45.176;5.714;2023-03-03T03:16:35;9.90;57.40
10121;DHT22;5100;45.176;5.714;2023-03-03T03:19:01;9.90;57.50
10121;DHT22;5100;45.176;5.714;2023-03-03T03:21:28;9.90;57.60
10121;DHT22;5100;45.176;5.714;2023-03-03T03:23:55;9.90;57.60
10121;DHT22;5100;45.176;5.714;2023-03-03T03:26:21;9.90;57.70
10121;DHT22;5100;45.176;5.714;2023-03-03T03:28:49;9.90;57.70
10121;DHT22;5100;45.176;5.714;2023-03-03T03:31:16;9.90;57.70
10121;DHT22;5100;45.176;5.714;2023-03-03T03:33:43;9.90;57.70
10121;DHT22;5100;45.176;5.714;2023-03-03T03:36:10;9.90;57.70
10121;DHT22;5100;45.176;5.714;2023-03-03T03:38:37;9.90;57.80
10121;DHT22;5100;45.176;5.714;2023-03-03T03:41:04;9.80;57.80
10121;DHT22;5100;45.176;5.714;2023-03-03T03:43:30;9.80;57.80
10121;DHT22;5100;45.176;5.714;2023-03-03T03:45:57;9.80;57.80
10121;DHT22;5100;45.176;5.714;2023-03-03T03:48:24;9.80;57.70
10121;DHT22;5100;45.176;5.714;2023-03-03T03:50:50;9.80;57.60
10121;DHT22;5100;45.176;5.714;2023-03-03T03:53:17;9.80;57.60
10121;DHT22;5100;45.176;5.714;2023-03-03T03:55:44;9.80;57.70
10121;DHT22;5100;45.176;5.714;2023-03-03T03:58:13;9.80;57.60
10121;DHT22;5100;45.176;5.714;2023-03-03T04:00:41;9.80;57.60
10121;DHT22;5100;45.176;5.714;2023-03-03T04:03:08;9.80;57.50
10121;DHT22;5100;45.176;5.714;2023-03-03T04:05:34;9.80;57.60
10121;DHT22;5100;45.176;5.714;2023-03-03T04:08:00;9.80;57.50
10121;DHT22;5100;45.176;5.714;2023-03-03T04:10:27;9.80;57.50
10121;DHT22;5100;45.176;5.714;2023-03-03T04:12:53;9.80;57.60
10121;DHT22;5100;45.176;5.714;2023-03-03T04:15:20;9.80;57.60
10121;DHT22;5100;45.176;5.714;2023-03-03T04:17:46;9.80;57.50
10121;DHT22;5100;45.176;5.714;2023-03-03T04:20:14;9.80;57.50
10121;DHT22;5100;45.176;5.714;2023-03-03T04:22:42;9.80;57.50
10121;DHT22;5100;45.176;5.714;2023-03-03T04:25:13;9.80;57.50
10121;DHT22;5100;45.176;5.714;2023-03-03T04:27:40;9.80;57.60
10121;DHT22;5100;45.176;5.714;2023-03-03T04:30:08;9.80;57.60
10121;DHT22;5100;45.176;5.714;2023-03-03T04:32:36;9.80;57.70
10121;DHT22;5100;45.176;5.714;2023-03-03T04:35:02;9.80;57.70
10121;DHT22;5100;45.176;5.714;2023-03-03T04:37:29;9.80;57.60
10121;DHT22;5100;45.176;5.714;2023-03-03T04:39:55;9.80;57.70
10121;DHT22;5100;45.176;5.714;2023-03-03T04:42:21;9.80;57.70
10121;DHT22;5100;45.176;5.714;2023-03-03T04:44:48;9.80;57.60
10121;DHT22;5100;45.176;5.714;2023-03-03T04:47:14;9.80;57.60
10121;DHT22;5100;45.176;5.714;2023-03-03T04:49:40;9.80;57.60
10121;DHT22;5100;45.176;5.714;2023-03-03T04:52:08;9.80;57.70
10121;DHT22;5100;45.176;5.714;2023-03-03T04:54:35;9.80;57.70
10121;DHT22;5100;45.176;5.714;2023-03-03T04:57:01;9.80;57.70
10121;DHT22;5100;45.176;5.714;2023-03-03T04:59:28;9.80;57.70
10121;DHT22;5100;45.176;5.714;2023-03-03T05:01:53;9.80;57.70
10121;DHT22;5100;45.176;5.714;2023-03-03T05:04:20;9.80;57.70
10121;DHT22;5100;45.176;5.714;2023-03-03T05:06:46;9.80;57.80
10121;DHT22;5100;45.176;5.714;2023-03-03T05:09:12;9.80;57.80
10121;DHT22;5100;45.176;5.714;2023-03-03T05:11:38;9.80;57.80
10121;DHT22;5100;45.176;5.714;2023-03-03T05:14:04;9.80;57.80
10121;DHT22;5100;45.176;5.714;2023-03-03T05:16:32;9.80;57.90
10121;DHT22;5100;45.176;5.714;2023-03-03T05:18:58;9.80;58.00
10121;DHT22;5100;45.176;5.714;2023-03-03T05:21:25;9.80;58.00
10121;DHT22;5100;45.176;5.714;2023-03-03T05:23:51;9.80;58.00
10121;DHT22;5100;45.176;5.714;2023-03-03T05:26:17;9.80;58.10
10121;DHT22;5100;45.176;5.714;2023-03-03T05:28:44;9.80;58.10
10121;DHT22;5100;45.176;5.714;2023-03-03T05:31:09;9.80;58.10
10121;DHT22;5100;45.176;5.714;2023-03-03T05:33:36;9.80;58.20
10121;DHT22;5100;45.176;5.714;2023-03-03T05:36:03;9.80;58.10
10121;DHT22;5100;45.176;5.714;2023-03-03T05:38:29;9.80;58.00
10121;DHT22;5100;45.176;5.714;2023-03-03T05:40:55;9.80;58.10
10121;DHT22;5100;45.176;5.714;2023-03-03T05:43:21;9.80;58.00
10121;DHT22;5100;45.176;5.714;2023-03-03T05:45:47;9.80;58.00
10121;DHT22;5100;45.176;5.714;2023-03-03T05:48:18;9.80;57.90
10121;DHT22;5100;45.176;5.714;2023-03-03T05:50:45;9.80;57.90
10121;DHT22;5100;45.176;5.714;2023-03-03T05:53:10;9.80;57.90
10121;DHT22;5100;45.176;5.714;2023-03-03T05:55:36;9.80;57.80
10121;DHT22;5100;45.176;5.714;2023-03-03T05:58:03;9.80;57.90
10121;DHT22;5100;45.176;5.714;2023-03-03T06:00:28;9.80;57.90
10121;DHT22;5100;45.176;5.714;2023-03-03T06:02:55;9.80;57.90
10121;DHT22;5100;45.176;5.714;2023-03-03T06:05:21;9.80;57.80
10121;DHT22;5100;45.176;5.714;2023-03-03T06:07:47;9.80;57.90
10121;DHT22;5100;45.176;5.714;2023-03-03T06:10:13;9.80;57.80
10121;DHT22;5100;45.176;5.714;2023-03-03T06:12:40;9.80;57.80
10121;DHT22;5100;45.176;5.714;2023-03-03T06:15:07;9.80;57.70
10121;DHT22;5100;45.176;5.714;2023-03-03T06:17:34;9.80;57.70
10121;DHT22;5100;45.176;5.714;2023-03-03T06:20:00;9.80;57.70
10121;DHT22;5100;45.176;5.714;2023-03-03T06:22:26;9.80;57.70
10121;DHT22;5100;45.176;5.714;2023-03-03T06:24:52;9.80;57.70
10121;DHT22;5100;45.176;5.714;2023-03-03T06:27:18;9.80;57.70
10121;DHT22;5100;45.176;5.714;2023-03-03T06:29:44;9.80;57.70
10121;DHT22;5100;45.176;5.714;2023-03-03T06:32:13;9.80;57.70
10121;DHT22;5100;45.176;5.714;2023-03-03T06:34:39;9.80;57.80
10121;DHT22;5100;45.176;5.714;2023-03-03T06:37:05;9.80;57.80
10121;DHT22;5100;45.176;5.714;2023-03-03T06:39:32;9.80;57.90
10121;DHT22;5100;45.176;5.714;2023-03-03T06:41:58;9.80;57.90
10121;DHT22;5100;45.176;5.714;2023-03-03T06:44:24;9.80;57.90
10121;DHT22;5100;45.176;5.714;2023-03-03T06:46:50;9.80;58.00
10121;DHT22;5100;45.176;5.714;2023-03-03T06:49:16;9.80;58.10
10121;DHT22;5100;45.176;5.714;2023-03-03T06:51:42;9.80;58.10
10121;DHT22;5100;45.176;5.714;2023-03-03T06:54:16;9.80;58.20
10121;DHT22;5100;45.176;5.714;2023-03-03T06:56:43;9.80;58.10
10121;DHT22;5100;45.176;5.714;2023-03-03T06:59:15;9.80;58.20
10121;DHT22;5100;45.176;5.714;2023-03-03T07:01:42;9.80;58.20
10121;DHT22;5100;45.176;5.714;2023-03-03T07:06:55;9.80;58.20
10121;DHT22;5100;45.176;5.714;2023-03-03T07:09:24;9.90;58.30
10121;DHT22;5100;45.176;5.714;2023-03-03T07:11:51;9.90;58.40
10121;DHT22;5100;45.176;5.714;2023-03-03T07:14:19;9.90;58.90
10121;DHT22;5100;45.176;5.714;2023-03-03T07:16:46;9.90;59.00
10121;DHT22;5100;45.176;5.714;2023-03-03T07:19:22;9.90;59.10
10121;DHT22;5100;45.176;5.714;2023-03-03T07:21:52;9.90;59.20
10121;DHT22;5100;45.176;5.714;2023-03-03T07:24:28;9.90;59.30
10121;DHT22;5100;45.176;5.714;2023-03-03T07:27:15;9.90;59.30
10121;DHT22;5100;45.176;5.714;2023-03-03T07:29:44;10.00;59.40
10121;DHT22;5100;45.176;5.714;2023-03-03T07:34:45;10.00;59.50
10121;DHT22;5100;45.176;5.714;2023-03-03T07:37:21;10.00;59.40
10121;DHT22;5100;45.176;5.714;2023-03-03T07:39:50;10.00;59.40
10121;DHT22;5100;45.176;5.714;2023-03-03T07:42:38;10.00;59.40
10121;DHT22;5100;45.176;5.714;2023-03-03T07:45:26;10.00;59.50
10121;DHT22;5100;45.176;5.714;2023-03-03T07:48:12;10.00;59.40
10121;DHT22;5100;45.176;5.714;2023-03-03T07:50:41;10.00;59.50
10121;DHT22;5100;45.176;5.714;2023-03-03T07:53:30;10.00;59.50
10121;DHT22;5100;45.176;5.714;2023-03-03T07:55:59;10.00;59.50
10121;DHT22;5100;45.176;5.714;2023-03-03T07:58:39;10.10;59.50
10121;DHT22;5100;45.176;5.714;2023-03-03T08:01:37;10.10;59.50
10121;DHT22;5100;45.176;5.714;2023-03-03T08:09:26;10.20;59.30
10121;DHT22;5100;45.176;5.714;2023-03-03T08:11:58;10.20;59.30
10121;DHT22;5100;45.176;5.714;2023-03-03T08:14:30;10.20;59.20
10121;DHT22;5100;45.176;5.714;2023-03-03T08:16:58;10.20;59.10
10121;DHT22;5100;45.176;5.714;2023-03-03T08:19:25;10.20;59.10
10121;DHT22;5100;45.176;5.714;2023-03-03T08:21:59;10.20;59.10
10121;DHT22;5100;45.176;5.714;2023-03-03T08:24:27;10.20;59.00
10121;DHT22;5100;45.176;5.714;2023-03-03T08:26:54;10.30;59.00
10121;DHT22;5100;45.176;5.714;2023-03-03T08:29:20;10.30;59.00
10121;DHT22;5100;45.176;5.714;2023-03-03T08:31:46;10.30;58.80
10121;DHT22;5100;45.176;5.714;2023-03-03T08:34:13;10.40;58.80
10121;DHT22;5100;45.176;5.714;2023-03-03T08:36:39;10.40;58.80
10121;DHT22;5100;45.176;5.714;2023-03-03T08:39:05;10.40;58.80
10121;DHT22;5100;45.176;5.714;2023-03-03T08:41:31;10.40;58.70
10121;DHT22;5100;45.176;5.714;2023-03-03T08:43:57;10.40;58.50
10121;DHT22;5100;45.176;5.714;2023-03-03T08:46:23;10.40;58.60
10121;DHT22;5100;45.176;5.714;2023-03-03T08:48:49;10.40;58.50
10121;DHT22;5100;45.176;5.714;2023-03-03T08:51:16;10.50;58.50
10121;DHT22;5100;45.176;5.714;2023-03-03T08:53:41;10.50;58.40
10121;DHT22;5100;45.176;5.714;2023-03-03T08:56:08;10.50;58.40
10121;DHT22;5100;45.176;5.714;2023-03-03T08:58:35;10.60;58.50
10121;DHT22;5100;45.176;5.714;2023-03-03T09:01:01;10.60;58.10
10121;DHT22;5100;45.176;5.714;2023-03-03T09:03:27;10.70;57.90
10121;DHT22;5100;45.176;5.714;2023-03-03T09:05:53;10.70;58.00
10121;DHT22;5100;45.176;5.714;2023-03-03T09:08:19;10.70;58.00
10121;DHT22;5100;45.176;5.714;2023-03-03T09:10:45;10.70;58.00
10121;DHT22;5100;45.176;5.714;2023-03-03T09:13:14;10.80;58.00
10121;DHT22;5100;45.176;5.714;2023-03-03T09:15:41;10.80;58.00
10121;DHT22;5100;45.176;5.714;2023-03-03T09:20:39;10.80;57.90
10121;DHT22;5100;45.176;5.714;2023-03-03T09:25:53;10.90;57.40
10121;DHT22;5100;45.176;5.714;2023-03-03T09:30:52;11.00;57.20
10121;DHT22;5100;45.176;5.714;2023-03-03T09:35:51;10.90;56.10
10121;DHT22;5100;45.176;5.714;2023-03-03T09:38:40;11.00;55.90
10121;DHT22;5100;45.176;5.714;2023-03-03T09:46:39;11.00;55.80
10121;DHT22;5100;45.176;5.714;2023-03-03T09:49:34;11.00;55.80
10121;DHT22;5100;45.176;5.714;2023-03-03T10:11:44;11.10;55.70
10121;DHT22;5100;45.176;5.714;2023-03-03T10:19:39;11.20;55.80
10121;DHT22;5100;45.176;5.714;2023-03-03T10:25:03;11.20;55.70
10121;DHT22;5100;45.176;5.714;2023-03-03T10:30:19;11.20;56.00
10121;DHT22;5100;45.176;5.714;2023-03-03T10:33:18;11.30;56.40
10121;DHT22;5100;45.176;5.714;2023-03-03T10:50:20;11.40;55.50
10121;DHT22;5100;45.176;5.714;2023-03-03T11:01:28;11.50;55.10
10121;DHT22;5100;45.176;5.714;2023-03-03T11:06:52;11.50;55.20
10121;DHT22;5100;45.176;5.714;2023-03-03T11:18:41;11.60;55.20
10121;DHT22;5100;45.176;5.714;2023-03-03T11:21:20;11.70;55.20
10121;DHT22;5100;45.176;5.714;2023-03-03T11:31:37;11.80;55.10
10121;DHT22;5100;45.176;5.714;2023-03-03T11:36:48;11.80;54.90
10121;DHT22;5100;45.176;5.714;2023-03-03T11:39:22;11.80;55.00
10121;DHT22;5100;45.176;5.714;2023-03-03T11:42:14;11.90;55.00
10121;DHT22;5100;45.176;5.714;2023-03-03T11:44:59;11.90;54.90
10121;DHT22;5100;45.176;5.714;2023-03-03T11:47:39;11.90;54.80
10121;DHT22;5100;45.176;5.714;2023-03-03T11:50:57;12.00;54.70
10121;DHT22;5100;45.176;5.714;2023-03-03T11:53:14;12.00;54.70
10121;DHT22;5100;45.176;5.714;2023-03-03T11:55:51;12.00;54.70
10121;DHT22;5100;45.176;5.714;2023-03-03T11:58:31;12.10;54.60
10121;DHT22;5100;45.176;5.714;2023-03-03T12:01:21;12.10;54.60
10121;DHT22;5100;45.176;5.714;2023-03-03T12:04:00;12.20;54.50
10121;DHT22;5100;45.176;5.714;2023-03-03T12:11:52;12.30;54.20
10121;DHT22;5100;45.176;5.714;2023-03-03T12:17:02;12.40;54.30
10121;DHT22;5100;45.176;5.714;2023-03-03T12:22:30;12.40;54.20
10121;DHT22;5100;45.176;5.714;2023-03-03T12:25:21;12.40;54.10
10121;DHT22;5100;45.176;5.714;2023-03-03T12:28:16;12.50;54.30
10121;DHT22;5100;45.176;5.714;2023-03-03T12:39:32;12.60;54.00
10121;DHT22;5100;45.176;5.714;2023-03-03T12:42:24;12.60;53.90
10121;DHT22;5100;45.176;5.714;2023-03-03T12:48:11;12.60;53.80
10121;DHT22;5100;45.176;5.714;2023-03-03T12:53:27;12.70;53.90
10121;DHT22;5100;45.176;5.714;2023-03-03T12:56:03;12.70;53.80
10121;DHT22;5100;45.176;5.714;2023-03-03T13:01:35;12.70;54.00
10121;DHT22;5100;45.176;5.714;2023-03-03T13:06:55;12.70;54.00
10121;DHT22;5100;45.176;5.714;2023-03-03T13:26:44;12.60;54.00
10121;DHT22;5100;45.176;5.714;2023-03-03T13:29:19;12.60;54.00
10121;DHT22;5100;45.176;5.714;2023-03-03T13:32:17;12.60;54.10
10121;DHT22;5100;45.176;5.714;2023-03-03T13:34:54;12.60;54.10
10121;DHT22;5100;45.176;5.714;2023-03-03T13:42:50;12.60;54.10
10121;DHT22;5100;45.176;5.714;2023-03-03T14:04:30;12.60;54.20
10121;DHT22;5100;45.176;5.714;2023-03-03T14:07:12;12.60;54.30
10121;DHT22;5100;45.176;5.714;2023-03-03T14:12:37;12.60;54.20
10121;DHT22;5100;45.176;5.714;2023-03-03T14:18:02;12.70;54.20
10121;DHT22;5100;45.176;5.714;2023-03-03T14:20:51;12.70;53.90
10121;DHT22;5100;45.176;5.714;2023-03-03T14:26:07;12.70;53.90
10121;DHT22;5100;45.176;5.714;2023-03-03T14:31:23;12.70;53.80
10121;DHT22;5100;45.176;5.714;2023-03-03T14:37:17;12.70;53.70
10121;DHT22;5100;45.176;5.714;2023-03-03T14:39:49;12.70;53.70
10121;DHT22;5100;45.176;5.714;2023-03-03T14:42:37;12.70;53.70
10121;DHT22;5100;45.176;5.714;2023-03-03T14:47:47;12.70;53.90
10121;DHT22;5100;45.176;5.714;2023-03-03T14:50:36;12.70;53.90
10121;DHT22;5100;45.176;5.714;2023-03-03T14:53:21;12.70;53.80
10121;DHT22;5100;45.176;5.714;2023-03-03T14:55:50;12.70;53.80
10121;DHT22;5100;45.176;5.714;2023-03-03T14:58:46;12.70;53.80
10121;DHT22;5100;45.176;5.714;2023-03-03T15:01:23;12.70;53.90
10121;DHT22;5100;45.176;5.714;2023-03-03T15:06:52;12.70;53.90
10121;DHT22;5100;45.176;5.714;2023-03-03T15:09:35;12.70;53.90
10121;DHT22;5100;45.176;5.714;2023-03-03T15:12:25;12.70;54.00
10121;DHT22;5100;45.176;5.714;2023-03-03T15:17:40;12.70;54.10
10121;DHT22;5100;45.176;5.714;2023-03-03T15:20:29;12.70;54.10
10121;DHT22;5100;45.176;5.714;2023-03-03T15:25:46;12.70;54.10
10121;DHT22;5100;45.176;5.714;2023-03-03T15:33:47;12.70;54.30
10121;DHT22;5100;45.176;5.714;2023-03-03T15:39:36;12.60;54.40
10121;DHT22;5100;45.176;5.714;2023-03-03T15:42:14;12.60;54.50
10121;DHT22;5100;45.176;5.714;2023-03-03T16:03:37;12.50;54.90
10121;DHT22;5100;45.176;5.714;2023-03-03T16:06:14;12.50;54.90
10121;DHT22;5100;45.176;5.714;2023-03-03T16:09:12;12.50;54.90
10121;DHT22;5100;45.176;5.714;2023-03-03T16:11:45;12.50;55.00
10121;DHT22;5100;45.176;5.714;2023-03-03T16:20:21;12.50;55.00
10121;DHT22;5100;45.176;5.714;2023-03-03T16:23:28;12.40;55.00
10121;DHT22;5100;45.176;5.714;2023-03-03T16:31:20;12.40;55.10
10121;DHT22;5100;45.176;5.714;2023-03-03T16:37:00;12.40;55.20
10121;DHT22;5100;45.176;5.714;2023-03-03T16:42:28;12.30;55.10
10121;DHT22;5100;45.176;5.714;2023-03-03T16:45:21;12.30;55.20
10121;DHT22;5100;45.176;5.714;2023-03-03T16:56:22;12.20;55.30
10121;DHT22;5100;45.176;5.714;2023-03-03T17:04:53;12.20;55.20
10121;DHT22;5100;45.176;5.714;2023-03-03T17:07:45;12.20;55.20
10121;DHT22;5100;45.176;5.714;2023-03-03T17:13:03;12.10;55.20
10121;DHT22;5100;45.176;5.714;2023-03-03T17:21:01;12.10;55.10
10121;DHT22;5100;45.176;5.714;2023-03-03T17:36:43;12.00;55.20
10121;DHT22;5100;45.176;5.714;2023-03-03T17:39:29;12.00;55.10
10121;DHT22;5100;45.176;5.714;2023-03-03T17:42:11;12.00;55.20
10121;DHT22;5100;45.176;5.714;2023-03-03T18:01:24;11.90;55.00
10121;DHT22;5100;45.176;5.714;2023-03-03T18:11:58;11.90;54.90
10121;DHT22;5100;45.176;5.714;2023-03-03T18:14:40;11.90;54.90
10121;DHT22;5100;45.176;5.714;2023-03-03T18:26:02;11.80;55.10
10121;DHT22;5100;45.176;5.714;2023-03-03T18:37:01;11.80;54.90
10121;DHT22;5100;45.176;5.714;2023-03-03T18:42:42;11.70;55.00
10121;DHT22;5100;45.176;5.714;2023-03-03T18:48:12;11.70;55.10
10121;DHT22;5100;45.176;5.714;2023-03-03T18:50:46;11.70;55.10
10121;DHT22;5100;45.176;5.714;2023-03-03T18:53:58;11.70;55.00
10121;DHT22;5100;45.176;5.714;2023-03-03T19:04:48;11.70;55.10
10121;DHT22;5100;45.176;5.714;2023-03-03T19:07:24;11.70;55.10
10121;DHT22;5100;45.176;5.714;2023-03-03T19:10:00;11.70;55.10
10121;DHT22;5100;45.176;5.714;2023-03-03T19:12:49;11.70;55.10
10121;DHT22;5100;45.176;5.714;2023-03-03T19:18:00;11.60;55.00
10121;DHT22;5100;45.176;5.714;2023-03-03T19:20:37;11.60;55.00
10121;DHT22;5100;45.176;5.714;2023-03-03T19:23:30;11.60;55.00
10121;DHT22;5100;45.176;5.714;2023-03-03T19:31:31;11.60;55.10
10121;DHT22;5100;45.176;5.714;2023-03-03T19:34:34;11.60;55.20
10121;DHT22;5100;45.176;5.714;2023-03-03T19:40:01;11.60;55.20
10121;DHT22;5100;45.176;5.714;2023-03-03T19:46:03;11.60;55.20
10121;DHT22;5100;45.176;5.714;2023-03-03T19:51:20;11.60;55.10
10121;DHT22;5100;45.176;5.714;2023-03-03T19:56:54;11.60;55.20
10121;DHT22;5100;45.176;5.714;2023-03-03T19:59:54;11.50;55.10
10121;DHT22;5100;45.176;5.714;2023-03-03T20:02:43;11.50;55.20
10121;DHT22;5100;45.176;5.714;2023-03-03T20:05:18;11.50;55.20
10121;DHT22;5100;45.176;5.714;2023-03-03T20:10:55;11.50;55.10
10121;DHT22;5100;45.176;5.714;2023-03-03T20:13:49;11.50;55.10
10121;DHT22;5100;45.176;5.714;2023-03-03T20:16:34;11.50;55.20
10121;DHT22;5100;45.176;5.714;2023-03-03T20:19:32;11.50;55.20
10121;DHT22;5100;45.176;5.714;2023-03-03T20:22:22;11.50;55.20
10121;DHT22;5100;45.176;5.714;2023-03-03T20:35:31;11.50;55.50
10121;DHT22;5100;45.176;5.714;2023-03-03T20:40:56;11.50;55.50
10121;DHT22;5100;45.176;5.714;2023-03-03T20:46:24;11.50;55.50
10121;DHT22;5100;45.176;5.714;2023-03-03T20:49:12;11.50;55.40
10121;DHT22;5100;45.176;5.714;2023-03-03T20:51:47;11.50;55.40
10121;DHT22;5100;45.176;5.714;2023-03-03T20:57:18;11.50;55.50
10121;DHT22;5100;45.176;5.714;2023-03-03T21:05:19;11.50;55.40
10121;DHT22;5100;45.176;5.714;2023-03-03T21:10:21;11.50;55.40
10121;DHT22;5100;45.176;5.714;2023-03-03T21:12:50;11.50;55.40
10121;DHT22;5100;45.176;5.714;2023-03-03T21:15:29;11.50;55.50
10121;DHT22;5100;45.176;5.714;2023-03-03T21:17:57;11.50;55.40
10121;DHT22;5100;45.176;5.714;2023-03-03T21:20:30;11.50;55.40
10121;DHT22;5100;45.176;5.714;2023-03-03T21:22:58;11.50;55.50
10121;DHT22;5100;45.176;5.714;2023-03-03T21:25:41;11.50;55.40
10121;DHT22;5100;45.176;5.714;2023-03-03T21:28:29;11.50;55.50
10121;DHT22;5100;45.176;5.714;2023-03-03T21:31:15;11.50;55.50
10121;DHT22;5100;45.176;5.714;2023-03-03T21:33:53;11.50;55.50
10121;DHT22;5100;45.176;5.714;2023-03-03T21:38:50;11.50;55.60
10121;DHT22;5100;45.176;5.714;2023-03-03T21:41:17;11.50;55.70
10121;DHT22;5100;45.176;5.714;2023-03-03T21:43:48;11.50;55.70
10121;DHT22;5100;45.176;5.714;2023-03-03T21:46:20;11.50;55.70
10121;DHT22;5100;45.176;5.714;2023-03-03T21:48:46;11.50;55.70
10121;DHT22;5100;45.176;5.714;2023-03-03T21:51:12;11.50;55.70
10121;DHT22;5100;45.176;5.714;2023-03-03T21:53:45;11.50;55.70
10121;DHT22;5100;45.176;5.714;2023-03-03T21:56:12;11.50;55.70
10121;DHT22;5100;45.176;5.714;2023-03-03T21:58:42;11.50;55.70
10121;DHT22;5100;45.176;5.714;2023-03-03T22:01:08;11.50;55.70
10121;DHT22;5100;45.176;5.714;2023-03-03T22:03:34;11.50;55.70
10121;DHT22;5100;45.176;5.714;2023-03-03T22:06:01;11.50;55.70
10121;DHT22;5100;45.176;5.714;2023-03-03T22:08:27;11.50;55.70
10121;DHT22;5100;45.176;5.714;2023-03-03T22:10:54;11.40;55.70
10121;DHT22;5100;45.176;5.714;2023-03-03T22:13:24;11.40;55.70
10121;DHT22;5100;45.176;5.714;2023-03-03T22:15:51;11.50;55.70
10121;DHT22;5100;45.176;5.714;2023-03-03T22:18:19;11.50;55.80
10121;DHT22;5100;45.176;5.714;2023-03-03T22:20:45;11.50;55.80
10121;DHT22;5100;45.176;5.714;2023-03-03T22:23:13;11.50;55.80
10121;DHT22;5100;45.176;5.714;2023-03-03T22:25:40;11.50;55.80
10121;DHT22;5100;45.176;5.714;2023-03-03T22:28:07;11.50;55.80
10121;DHT22;5100;45.176;5.714;2023-03-03T22:30:33;11.50;55.80
10121;DHT22;5100;45.176;5.714;2023-03-03T22:32:59;11.50;55.80
10121;DHT22;5100;45.176;5.714;2023-03-03T22:35:25;11.50;55.80
10121;DHT22;5100;45.176;5.714;2023-03-03T22:37:51;11.50;55.70
10121;DHT22;5100;45.176;5.714;2023-03-03T22:40:17;11.50;55.60
10121;DHT22;5100;45.176;5.714;2023-03-03T22:42:43;11.40;55.60
10121;DHT22;5100;45.176;5.714;2023-03-03T22:45:09;11.40;55.60
10121;DHT22;5100;45.176;5.714;2023-03-03T22:47:36;11.40;55.60
10121;DHT22;5100;45.176;5.714;2023-03-03T22:50:03;11.40;55.50
10121;DHT22;5100;45.176;5.714;2023-03-03T22:52:29;11.40;55.60
10121;DHT22;5100;45.176;5.714;2023-03-03T22:54:55;11.40;55.60
10121;DHT22;5100;45.176;5.714;2023-03-03T22:57:24;11.30;55.60
10121;DHT22;5100;45.176;5.714;2023-03-03T22:59:50;11.30;55.60
10121;DHT22;5100;45.176;5.714;2023-03-03T23:02:16;11.30;55.60
10121;DHT22;5100;45.176;5.714;2023-03-03T23:04:42;11.30;55.60
10121;DHT22;5100;45.176;5.714;2023-03-03T23:07:08;11.30;55.70